Time;durP1;ratioP1;P1;durP2;ratioP2;P2;SDS_P1;SDS_P2;PMS_P1;PMS_P2;Temp;Humidity;BMP_temperature;BMP_pressure;BME280_temperature;BME280_humidity;BME280_pressure;Samples;Min_cycle;Max_cycle;Signal;HPM_P1;HPM_P2
2022/11/08 00:01:30;;;;;;;0.00;0.00;;;13.20;99.90;;;;;;5093617;28;20383;-78
2022/11/08 00:03:16;;;;;;;0.32;0.32;;;13.20;99.90;;;;;;5055615;28;20052;-78
2022/11/08 00:14:00;;;;;;;0.00;0.00;;;13.20;99.90;;;;;;5055934;28;20053;-78
2022/11/08 00:16:27;;;;;;;0.00;0.00;;;13.20;99.90;;;;;;5055421;28;20097;-78
2022/11/08 00:18:53;;;;;;;0.43;0.20;;;13.20;99.90;;;;;;5055629;28;20037;-78
2022/11/08 00:21:18;;;;;;;0.80;0.20;;;13.20;99.90;;;;;;5055356;28;20554;-78
2022/11/08 00:23:44;;;;;;;0.00;0.00;;;13.20;99.90;;;;;;5055321;28;20071;-78
2022/11/08 00:26:09;;;;;;;0.60;0.20;;;13.10;99.90;;;;;;5055086;28;20147;-78
2022/11/08 00:28:35;;;;;;;0.80;0.55;;;13.10;99.90;;;;;;5054962;28;20036;-78
2022/11/08 00:31:06;;;;;;;0.30;0.30;;;13.10;99.90;;;;;;5055150;28;20040;-78
2022/11/08 00:33:32;;;;;;;0.00;0.00;;;13.10;99.90;;;;;;5055088;28;20637;-78
2022/11/08 00:35:58;;;;;;;0.00;0.00;;;13.10;99.90;;;;;;5038290;28;20153;-78
2022/11/08 00:38:24;;;;;;;0.00;0.00;;;13.00;99.90;;;;;;5055109;28;20071;-78
2022/11/08 00:40:50;;;;;;;0.10;0.10;;;13.00;99.90;;;;;;5075849;28;20063;-78
2022/11/08 00:43:15;;;;;;;2.78;0.20;;;12.90;99.90;;;;;;5076407;28;20505;-78
2022/11/08 00:45:41;;;;;;;0.00;0.00;;;12.90;99.90;;;;;;5093278;28;20506;-78
2022/11/08 00:48:06;;;;;;;0.00;0.00;;;12.90;99.90;;;;;;5092905;28;20051;-78
2022/11/08 00:50:32;;;;;;;0.03;0.03;;;12.90;99.90;;;;;;5092621;28;20036;-78
2022/11/08 00:52:58;;;;;;;0.00;0.00;;;12.90;99.90;;;;;;5092819;28;20403;-78
2022/11/08 00:55:23;;;;;;;0.10;0.10;;;12.90;99.90;;;;;;5092770;28;20048;-78
2022/11/08 00:57:49;;;;;;;3.00;0.00;;;12.80;99.90;;;;;;5092132;28;20496;-78
2022/11/08 01:00:15;;;;;;;0.00;0.00;;;12.80;99.90;;;;;;5075901;28;20074;-77
2022/11/08 01:02:41;;;;;;;0.00;0.00;;;12.80;99.90;;;;;;5076010;28;20044;-77
2022/11/08 01:05:06;;;;;;;0.00;0.00;;;12.80;99.90;;;;;;5075996;28;20091;-77
2022/11/08 01:07:32;;;;;;;0.47;0.47;;;12.70;99.90;;;;;;5092646;28;20039;-78
2022/11/08 01:09:58;;;;;;;0.00;0.00;;;12.80;99.90;;;;;;5095243;28;20043;-78
2022/11/08 01:12:24;;;;;;;0.20;0.20;;;12.70;99.90;;;;;;5096746;28;20080;-78
2022/11/08 01:14:49;;;;;;;0.25;0.17;;;12.60;99.90;;;;;;5080534;28;20052;-78
2022/11/08 01:17:15;;;;;;;0.30;0.30;;;12.70;99.90;;;;;;5079873;28;20570;-78
2022/11/08 01:19:40;;;;;;;0.45;0.20;;;12.70;99.90;;;;;;5079854;28;20365;-78
2022/11/08 01:22:06;;;;;;;0.00;0.00;;;12.60;99.90;;;;;;5096692;28;20063;-78
2022/11/08 01:24:32;;;;;;;0.00;0.00;;;12.50;99.90;;;;;;5079691;28;20527;-78
2022/11/08 01:26:57;;;;;;;0.00;0.00;;;12.60;99.90;;;;;;5096549;28;20047;-78
2022/11/08 01:29:23;;;;;;;0.00;0.00;;;12.50;99.90;;;;;;5096425;28;20043;-78
2022/11/08 01:31:48;;;;;;;0.90;0.40;;;12.50;99.90;;;;;;5096372;28;20032;-78
2022/11/08 01:34:14;;;;;;;0.52;0.43;;;12.50;99.90;;;;;;5096434;28;20079;-78
2022/11/08 01:36:40;;;;;;;0.00;0.00;;;12.50;99.90;;;;;;5096200;28;20032;-78
2022/11/08 01:39:05;;;;;;;0.00;0.00;;;12.40;99.90;;;;;;5096792;28;20047;-78
2022/11/08 01:41:31;;;;;;;1.77;0.80;;;12.50;99.90;;;;;;5096266;28;20105;-78
2022/11/08 01:43:58;;;;;;;0.00;0.00;;;12.50;99.90;;;;;;5096236;28;20425;-78
2022/11/08 01:46:26;;;;;;;0.60;0.60;;;12.40;99.90;;;;;;5095911;28;20491;-78
2022/11/08 01:49:09;;;;;;;0.28;0.28;;;12.50;99.90;;;;;;5096220;28;20072;-78
2022/11/08 01:51:52;;;;;;;0.40;0.10;;;12.50;99.90;;;;;;5096296;28;20442;-78
2022/11/08 01:54:48;;;;;;;0.30;0.30;;;12.50;99.90;;;;;;5095956;28;20060;-78
2022/11/08 01:57:21;;;;;;;0.40;0.00;;;12.50;99.90;;;;;;5095588;28;20071;-78
2022/11/08 01:59:51;;;;;;;1.02;0.63;;;12.60;99.90;;;;;;5078992;28;20052;-78
2022/11/08 02:02:18;;;;;;;0.00;0.00;;;12.60;99.90;;;;;;5079495;28;20152;-78
2022/11/08 02:04:44;;;;;;;0.00;0.00;;;12.60;99.90;;;;;;5096392;28;20147;-78
2022/11/08 02:07:11;;;;;;;0.03;0.03;;;12.60;99.90;;;;;;5096177;28;20134;-78
2022/11/08 02:09:38;;;;;;;0.00;0.00;;;12.60;99.90;;;;;;5096035;28;20047;-78
2022/11/08 02:12:06;;;;;;;0.00;0.00;;;12.50;99.90;;;;;;5078859;28;20055;-79
2022/11/08 02:14:32;;;;;;;0.00;0.00;;;12.50;99.90;;;;;;5095668;28;20043;-78
2022/11/08 02:16:58;;;;;;;1.02;0.55;;;12.50;99.90;;;;;;5095489;28;20044;-78
2022/11/08 02:19:51;;;;;;;0.00;0.00;;;12.50;99.90;;;;;;5095550;28;20058;-78
2022/11/08 02:22:34;;;;;;;0.20;0.10;;;12.50;99.90;;;;;;5077338;28;20105;-78
2022/11/08 02:25:00;;;;;;;0.00;0.00;;;12.40;99.90;;;;;;5096239;28;20044;-78
2022/11/08 02:27:25;;;;;;;0.22;0.22;;;12.40;99.90;;;;;;5078688;28;20545;-78
2022/11/08 02:29:53;;;;;;;0.00;0.00;;;12.40;99.90;;;;;;5095271;28;20047;-78
2022/11/08 02:32:19;;;;;;;0.17;0.08;;;12.30;99.90;;;;;;5078658;28;20051;-78
2022/11/08 02:34:50;;;;;;;0.40;0.40;;;12.30;99.90;;;;;;5078477;28;20120;-78
2022/11/08 02:37:18;;;;;;;0.00;0.00;;;12.30;99.90;;;;;;5078176;28;20040;-78
2022/11/08 02:39:45;;;;;;;0.00;0.00;;;12.30;99.90;;;;;;5078796;28;20070;-78
2022/11/08 02:42:17;;;;;;;1.10;0.65;;;12.30;99.90;;;;;;5095780;28;20056;-78
2022/11/08 02:44:43;;;;;;;0.13;0.13;;;12.20;99.90;;;;;;5095041;28;20092;-78
2022/11/08 02:47:09;;;;;;;6.13;0.73;;;12.30;99.90;;;;;;5095014;28;20093;-78
2022/11/08 02:49:34;;;;;;;0.00;0.00;;;12.20;99.90;;;;;;5094846;28;20036;-78
2022/11/08 02:52:00;;;;;;;0.00;0.00;;;12.20;99.90;;;;;;5077847;28;20044;-78
2022/11/08 02:54:26;;;;;;;1.92;0.47;;;12.20;99.90;;;;;;5078739;28;20050;-78
2022/11/08 02:56:51;;;;;;;0.00;0.00;;;12.20;99.90;;;;;;5094952;28;20139;-78
2022/11/08 02:59:17;;;;;;;0.00;0.00;;;12.20;99.90;;;;;;5078210;28;20051;-78
2022/11/08 03:01:43;;;;;;;0.00;0.00;;;12.20;99.90;;;;;;5094948;28;20377;-77
2022/11/08 03:04:08;;;;;;;0.00;0.00;;;12.10;99.90;;;;;;5077986;28;20046;-77
2022/11/08 03:06:34;;;;;;;0.00;0.00;;;12.10;99.90;;;;;;5094744;28;20047;-78
2022/11/08 03:08:59;;;;;;;0.20;0.20;;;12.00;99.90;;;;;;5094643;28;20373;-78
2022/11/08 03:11:25;;;;;;;0.10;0.10;;;12.10;99.90;;;;;;5095145;28;20047;-78
2022/11/08 03:13:51;;;;;;;0.00;0.00;;;12.10;99.90;;;;;;5094659;28;20040;-78
2022/11/08 03:16:16;;;;;;;0.60;0.00;;;12.10;99.90;;;;;;5077760;28;20047;-78
2022/11/08 03:18:42;;;;;;;2.20;0.80;;;12.00;99.90;;;;;;5094270;28;20047;-78
2022/11/08 03:21:08;;;;;;;0.20;0.20;;;12.00;99.90;;;;;;5094472;28;20135;-78
2022/11/08 03:23:34;;;;;;;0.00;0.00;;;12.00;99.90;;;;;;5094620;28;20131;-78
2022/11/08 03:26:03;;;;;;;0.00;0.00;;;12.00;99.90;;;;;;5078236;28;20059;-78
2022/11/08 03:28:29;;;;;;;0.00;0.00;;;12.00;99.90;;;;;;5077460;28;20048;-78
2022/11/08 03:30:55;;;;;;;0.00;0.00;;;12.10;99.90;;;;;;5077344;28;20081;-78
2022/11/08 03:33:21;;;;;;;0.00;0.00;;;12.00;99.90;;;;;;5076893;28;20083;-78
2022/11/08 03:35:47;;;;;;;0.00;0.00;;;12.00;99.90;;;;;;5077239;28;20059;-78
2022/11/08 03:38:14;;;;;;;0.00;0.00;;;12.00;99.90;;;;;;5093809;28;20040;-78
2022/11/08 03:40:40;;;;;;;1.45;0.63;;;12.00;99.90;;;;;;5077317;28;20483;-78
2022/11/08 03:43:05;;;;;;;0.00;0.00;;;12.00;99.90;;;;;;5094162;28;20059;-78
2022/11/08 03:45:31;;;;;;;0.13;0.13;;;12.00;99.90;;;;;;5077196;28;20040;-78
2022/11/08 03:47:57;;;;;;;0.00;0.00;;;12.00;99.90;;;;;;5077270;28;20059;-78
2022/11/08 03:50:22;;;;;;;0.00;0.00;;;12.00;99.90;;;;;;5093982;28;20123;-78
2022/11/08 03:52:50;;;;;;;0.00;0.00;;;11.90;99.90;;;;;;5094500;28;20048;-78
2022/11/08 03:55:17;;;;;;;0.00;0.00;;;12.00;99.90;;;;;;5077237;28;20392;-78
2022/11/08 03:57:45;;;;;;;0.00;0.00;;;12.00;99.90;;;;;;5076660;28;20063;-78
2022/11/08 04:00:13;;;;;;;0.00;0.00;;;12.00;99.90;;;;;;5093765;28;20483;-78
2022/11/08 04:02:39;;;;;;;0.00;0.00;;;12.00;99.90;;;;;;5093754;28;20089;-78
2022/11/08 04:05:07;;;;;;;0.00;0.00;;;11.90;99.90;;;;;;5093897;28;20051;-78
2022/11/08 04:07:33;;;;;;;1.38;0.85;;;11.90;99.90;;;;;;5077157;28;20136;-78
2022/11/08 04:09:58;;;;;;;0.00;0.00;;;11.90;99.90;;;;;;5093635;28;20083;-78
2022/11/08 04:15:15;;;;;;;0.00;0.00;;;11.90;99.90;;;;;;5093488;28;20048;-78
2022/11/08 04:23:16;;;;;;;0.00;0.00;;;11.80;99.90;;;;;;5093370;28;20046;-78
2022/11/08 04:25:43;;;;;;;0.00;0.00;;;11.80;99.90;;;;;;5093048;28;20462;-78
2022/11/08 04:28:10;;;;;;;0.63;0.35;;;11.80;99.90;;;;;;5093155;28;20036;-78
2022/11/08 04:30:35;;;;;;;0.17;0.17;;;11.80;99.90;;;;;;5093446;28;20048;-78
2022/11/08 04:33:02;;;;;;;0.40;0.20;;;11.80;99.90;;;;;;5093195;28;20036;-78
2022/11/08 04:35:29;;;;;;;0.00;0.00;;;11.70;99.90;;;;;;5093054;28;20090;-78
2022/11/08 04:37:59;;;;;;;0.00;0.00;;;11.80;99.90;;;;;;5076057;28;20036;-78
2022/11/08 04:40:25;;;;;;;0.00;0.00;;;11.80;99.90;;;;;;5076196;28;20544;-78
2022/11/08 04:42:51;;;;;;;0.30;0.15;;;11.80;99.90;;;;;;5092982;28;20040;-78
2022/11/08 04:45:16;;;;;;;0.47;0.47;;;11.70;99.90;;;;;;5075826;28;20185;-78
2022/11/08 04:47:46;;;;;;;0.00;0.00;;;11.70;99.90;;;;;;5076652;28;20096;-78
2022/11/08 04:50:12;;;;;;;0.00;0.00;;;11.70;99.90;;;;;;5092943;28;20044;-78
2022/11/08 04:52:38;;;;;;;2.80;0.65;;;11.70;99.90;;;;;;5076251;28;20062;-78
2022/11/08 04:55:04;;;;;;;0.30;0.30;;;11.80;99.90;;;;;;5092994;28;20054;-78
2022/11/08 04:57:30;;;;;;;0.00;0.00;;;11.70;99.90;;;;;;5092548;28;20049;-78
2022/11/08 04:59:56;;;;;;;1.15;0.60;;;11.70;99.90;;;;;;5076143;28;20543;-78
2022/11/08 05:02:21;;;;;;;0.00;0.00;;;11.70;99.90;;;;;;5092979;28;20083;-78
2022/11/08 05:04:47;;;;;;;0.00;0.00;;;11.70;99.90;;;;;;5092850;28;20076;-78
2022/11/08 05:07:12;;;;;;;0.00;0.00;;;11.70;99.90;;;;;;5092910;28;20148;-78
2022/11/08 05:09:38;;;;;;;0.00;0.00;;;11.60;99.90;;;;;;5076587;28;20044;-78
2022/11/08 05:12:04;;;;;;;0.05;0.05;;;11.60;99.90;;;;;;5092772;28;20044;-78
2022/11/08 05:14:29;;;;;;;0.10;0.10;;;11.60;99.90;;;;;;5076304;28;20143;-78
2022/11/08 05:16:55;;;;;;;0.28;0.00;;;11.60;99.90;;;;;;5075897;28;20040;-78
2022/11/08 05:24:50;;;;;;;0.00;0.00;;;11.50;99.90;;;;;;5092952;28;20083;-78
2022/11/08 05:27:16;;;;;;;0.00;0.00;;;11.50;99.90;;;;;;5092998;28;20090;-78
2022/11/08 05:29:42;;;;;;;0.90;0.55;;;11.50;99.90;;;;;;5092657;28;20467;-78
2022/11/08 05:32:08;;;;;;;0.00;0.00;;;11.50;99.90;;;;;;5075994;28;20063;-80
2022/11/08 05:34:33;;;;;;;0.00;0.00;;;11.50;99.90;;;;;;5092492;28;20454;-79
2022/11/08 05:36:59;;;;;;;0.25;0.25;;;11.50;99.90;;;;;;5092986;28;20048;-78
2022/11/08 05:39:24;;;;;;;0.30;0.30;;;11.50;99.90;;;;;;5092508;28;20040;-77
2022/11/08 05:41:50;;;;;;;0.00;0.00;;;11.50;99.90;;;;;;5075372;28;20052;-78
2022/11/08 05:44:16;;;;;;;3.67;0.70;;;11.50;99.90;;;;;;5075551;28;20077;-78
2022/11/08 05:46:41;;;;;;;0.00;0.00;;;11.50;99.90;;;;;;5075517;28;20126;-78
2022/11/08 05:49:07;;;;;;;0.00;0.00;;;11.40;99.90;;;;;;5075808;28;20069;-81
2022/11/08 05:51:33;;;;;;;0.00;0.00;;;11.40;99.90;;;;;;5075604;28;20040;-81
2022/11/08 05:53:58;;;;;;;0.10;0.00;;;11.40;99.90;;;;;;5092364;28;20048;-78
2022/11/08 05:56:24;;;;;;;0.70;0.57;;;11.50;99.90;;;;;;5095276;28;20048;-78
2022/11/08 05:58:50;;;;;;;0.00;0.00;;;11.40;99.90;;;;;;5078926;28;20185;-78
2022/11/08 06:01:18;;;;;;;0.45;0.28;;;11.50;99.90;;;;;;5095945;28;20052;-78
2022/11/08 06:03:44;;;;;;;0.00;0.00;;;11.50;99.90;;;;;;5079260;28;20095;-78
2022/11/08 06:06:12;;;;;;;0.00;0.00;;;11.40;99.90;;;;;;5079033;28;20059;-78
2022/11/08 06:08:39;;;;;;;0.00;0.00;;;11.40;99.90;;;;;;5095843;28;20058;-78
2022/11/08 06:11:09;;;;;;;0.10;0.10;;;11.40;99.90;;;;;;5095876;28;20043;-77
2022/11/08 06:13:36;;;;;;;1.48;0.43;;;11.50;99.90;;;;;;5079070;28;20060;-78
2022/11/08 06:16:04;;;;;;;0.00;0.00;;;11.40;99.90;;;;;;5078719;28;20048;-78
2022/11/08 06:18:31;;;;;;;0.00;0.00;;;11.40;99.90;;;;;;5095852;28;20371;-78
2022/11/08 06:20:58;;;;;;;0.00;0.00;;;11.40;99.90;;;;;;5078933;28;20052;-77
2022/11/08 06:23:24;;;;;;;0.20;0.20;;;11.50;99.90;;;;;;5079103;28;20058;-77
2022/11/08 06:25:50;;;;;;;2.92;0.65;;;11.50;99.90;;;;;;5078660;28;20543;-78
2022/11/08 06:28:15;;;;;;;0.00;0.00;;;11.50;99.90;;;;;;5078274;28;20101;-78
2022/11/08 06:30:41;;;;;;;0.00;0.00;;;11.50;99.90;;;;;;5095354;28;20051;-77
2022/11/08 06:33:07;;;;;;;0.00;0.00;;;11.50;99.90;;;;;;5095626;28;20434;-78
2022/11/08 06:35:32;;;;;;;0.00;0.00;;;11.50;99.90;;;;;;5078631;28;20051;-78
2022/11/08 06:38:00;;;;;;;0.00;0.00;;;11.50;99.90;;;;;;5095177;28;20365;-78
2022/11/08 06:40:26;;;;;;;0.00;0.00;;;11.50;99.90;;;;;;5078478;28;20044;-77
2022/11/08 06:42:52;;;;;;;0.00;0.00;;;11.50;99.90;;;;;;5095455;28;20121;-78
2022/11/08 06:45:18;;;;;;;0.45;0.32;;;11.40;99.90;;;;;;5094517;28;20496;-77
2022/11/08 06:47:44;;;;;;;0.00;0.00;;;11.50;99.90;;;;;;5094923;28;20060;-78
2022/11/08 06:50:09;;;;;;;0.00;0.00;;;11.40;99.90;;;;;;5078439;28;20113;-78
2022/11/08 06:52:35;;;;;;;0.00;0.00;;;11.40;99.90;;;;;;5078389;28;20047;-77
2022/11/08 06:55:00;;;;;;;0.68;0.57;;;11.40;99.90;;;;;;5095041;28;20050;-78
2022/11/08 06:57:26;;;;;;;6.70;0.80;;;11.40;99.90;;;;;;5077953;28;20410;-78
2022/11/08 06:59:52;;;;;;;0.82;0.10;;;11.40;99.90;;;;;;5078190;28;20039;-78
2022/11/08 07:02:17;;;;;;;0.00;0.00;;;11.40;99.90;;;;;;5094971;28;20056;-78
2022/11/08 07:04:43;;;;;;;0.00;0.00;;;11.40;99.90;;;;;;5077793;28;20094;-78
2022/11/08 07:07:08;;;;;;;0.32;0.32;;;11.50;99.90;;;;;;5094125;28;20052;-77
2022/11/08 07:09:34;;;;;;;0.00;0.00;;;11.40;99.90;;;;;;5094679;28;20055;-77
2022/11/08 07:12:00;;;;;;;0.22;0.10;;;11.50;99.90;;;;;;5094855;28;20044;-78
2022/11/08 07:14:25;;;;;;;0.00;0.00;;;11.60;99.90;;;;;;5094623;28;20048;-78
2022/11/08 07:16:51;;;;;;;0.00;0.00;;;11.60;99.90;;;;;;5094559;28;20044;-77
2022/11/08 07:19:17;;;;;;;0.00;0.00;;;11.50;99.90;;;;;;5094556;28;20132;-77
2022/11/08 07:21:42;;;;;;;0.00;0.00;;;11.60;99.90;;;;;;5077331;28;20047;-77
2022/11/08 07:24:08;;;;;;;0.00;0.00;;;11.60;99.90;;;;;;5078563;28;20054;-77
2022/11/08 07:26:33;;;;;;;0.08;0.05;;;11.60;99.90;;;;;;5077305;28;20055;-78
2022/11/08 07:28:59;;;;;;;0.00;0.00;;;11.60;99.90;;;;;;5094251;28;20051;-78
2022/11/08 07:31:25;;;;;;;0.00;0.00;;;11.60;99.90;;;;;;5077660;28;20468;-78
2022/11/08 07:33:50;;;;;;;0.20;0.13;;;11.60;99.90;;;;;;5094337;28;20044;-78
2022/11/08 07:36:16;;;;;;;0.00;0.00;;;11.60;99.90;;;;;;5077221;28;20051;-77
2022/11/08 07:38:42;;;;;;;0.00;0.00;;;11.60;99.90;;;;;;5077459;28;20050;-77
2022/11/08 07:41:08;;;;;;;0.00;0.00;;;11.60;99.90;;;;;;5077298;28;20043;-77
2022/11/08 07:43:33;;;;;;;0.00;0.00;;;11.60;99.90;;;;;;5094063;28;20126;-77
2022/11/08 07:46:00;;;;;;;0.00;0.00;;;11.60;99.90;;;;;;5076813;28;20087;-77
2022/11/08 07:48:28;;;;;;;0.00;0.00;;;11.60;99.90;;;;;;5077146;28;20089;-77
2022/11/08 07:50:54;;;;;;;0.00;0.00;;;11.70;99.90;;;;;;5094108;28;20052;-77
2022/11/08 07:53:20;;;;;;;0.00;0.00;;;11.70;99.90;;;;;;5077017;28;20593;-77
2022/11/08 07:55:49;;;;;;;0.05;0.00;;;11.70;99.90;;;;;;5077009;28;20488;-77
2022/11/08 07:58:15;;;;;;;0.10;0.10;;;11.70;99.90;;;;;;5076477;28;20095;-77
2022/11/08 08:00:42;;;;;;;0.08;0.00;;;11.70;99.90;;;;;;5077467;28;20055;-77
2022/11/08 08:03:10;;;;;;;0.00;0.00;;;11.80;99.90;;;;;;5076499;28;20060;-78
2022/11/08 08:05:38;;;;;;;0.00;0.00;;;11.80;99.90;;;;;;5093800;28;20154;-78
2022/11/08 08:08:05;;;;;;;0.00;0.00;;;11.80;99.90;;;;;;5093869;28;20079;-77
2022/11/08 08:10:32;;;;;;;0.00;0.00;;;12.00;99.90;;;;;;5076593;28;20053;-77
2022/11/08 08:12:58;;;;;;;0.00;0.00;;;12.10;99.90;;;;;;5093576;28;20048;-77
2022/11/08 08:15:25;;;;;;;0.00;0.00;;;12.20;99.90;;;;;;5076799;28;20066;-77
2022/11/08 08:17:51;;;;;;;0.00;0.00;;;12.30;99.90;;;;;;5093228;28;20040;-78
2022/11/08 08:20:17;;;;;;;0.00;0.00;;;12.50;99.90;;;;;;5093364;28;20051;-78
2022/11/08 08:22:47;;;;;;;0.00;0.00;;;12.90;99.90;;;;;;5093462;28;20047;-78
2022/11/08 08:25:14;;;;;;;0.00;0.00;;;13.30;99.90;;;;;;5076414;28;20051;-78
2022/11/08 08:27:44;;;;;;;0.00;0.00;;;13.80;99.90;;;;;;5093247;28;20097;-78
2022/11/08 08:30:10;;;;;;;0.00;0.00;;;14.20;99.90;;;;;;5093146;28;20130;-78
2022/11/08 08:32:36;;;;;;;0.00;0.00;;;14.60;99.90;;;;;;5075880;28;20155;-78
2022/11/08 08:35:01;;;;;;;0.45;0.45;;;14.90;99.90;;;;;;5093085;28;20365;-78
2022/11/08 08:37:27;;;;;;;0.00;0.00;;;15.10;99.90;;;;;;5092923;28;20082;-77
2022/11/08 08:39:53;;;;;;;0.38;0.25;;;15.30;99.90;;;;;;5093052;28;20081;-78
2022/11/08 08:42:18;;;;;;;0.15;0.10;;;15.40;99.90;;;;;;5076355;28;20151;-78
2022/11/08 08:44:44;;;;;;;0.20;0.15;;;15.20;99.90;;;;;;5092711;28;20483;-78
2022/11/08 08:47:09;;;;;;;0.00;0.00;;;15.20;99.90;;;;;;5093108;28;20087;-78
2022/11/08 08:49:35;;;;;;;0.10;0.00;;;15.10;99.90;;;;;;5075830;28;20377;-78
2022/11/08 08:52:01;;;;;;;0.00;0.00;;;15.10;99.90;;;;;;5076377;28;20544;-77
2022/11/08 08:54:26;;;;;;;0.00;0.00;;;15.00;99.90;;;;;;5092574;28;20047;-78
2022/11/08 08:56:52;;;;;;;0.00;0.00;;;14.80;99.90;;;;;;5092273;28;20064;-78
2022/11/08 08:59:18;;;;;;;0.08;0.00;;;14.70;99.90;;;;;;5093289;28;20040;-77
2022/11/08 09:01:44;;;;;;;0.00;0.00;;;14.70;99.90;;;;;;5093018;28;20048;-78
2022/11/08 09:04:09;;;;;;;0.00;0.00;;;14.80;99.90;;;;;;5093099;28;20039;-78
2022/11/08 09:06:35;;;;;;;0.00;0.00;;;15.00;99.90;;;;;;5092960;28;20094;-78
2022/11/08 09:09:00;;;;;;;0.00;0.00;;;15.20;99.90;;;;;;5092713;28;20488;-78
2022/11/08 09:11:26;;;;;;;0.00;0.00;;;15.50;99.90;;;;;;5092728;28;20503;-77
2022/11/08 09:13:52;;;;;;;0.00;0.00;;;15.90;99.90;;;;;;5093054;28;20047;-78
2022/11/08 09:16:17;;;;;;;0.00;0.00;;;16.20;99.90;;;;;;5092620;28;20051;-78
2022/11/08 09:18:43;;;;;;;0.00;0.00;;;16.30;99.90;;;;;;5092621;28;20044;-78
2022/11/08 09:21:08;;;;;;;0.00;0.00;;;16.30;99.90;;;;;;5092806;28;20044;-78
2022/11/08 09:23:34;;;;;;;0.00;0.00;;;16.30;99.90;;;;;;5093098;28;20131;-78
2022/11/08 09:26:03;;;;;;;0.00;0.00;;;16.20;99.90;;;;;;5092798;28;20452;-78
2022/11/08 09:28:30;;;;;;;0.98;0.38;;;16.50;99.90;;;;;;5075973;28;20087;-78
2022/11/08 09:30:59;;;;;;;0.00;0.00;;;16.70;99.90;;;;;;5078233;28;20044;-78
2022/11/08 09:33:25;;;;;;;0.57;0.22;;;16.70;99.90;;;;;;5096397;28;20044;-78
2022/11/08 09:35:52;;;;;;;0.00;0.00;;;16.60;99.90;;;;;;5096529;28;20050;-77
2022/11/08 09:38:19;;;;;;;0.00;0.00;;;16.50;99.90;;;;;;5095937;28;20126;-78
2022/11/08 09:41:10;;;;;;;0.00;0.00;;;16.60;99.90;;;;;;5079502;28;20059;-78
2022/11/08 09:43:51;;;;;;;0.00;0.00;;;16.90;99.90;;;;;;5079250;28;20430;-78
2022/11/08 09:46:38;;;;;;;0.00;0.00;;;17.10;99.90;;;;;;5079725;28;20056;-78
2022/11/08 09:49:07;;;;;;;0.00;0.00;;;17.00;99.90;;;;;;5096291;28;20089;-78
2022/11/08 09:51:34;;;;;;;0.00;0.00;;;16.70;99.90;;;;;;5096031;28;20087;-77
2022/11/08 09:54:02;;;;;;;0.00;0.00;;;16.40;99.90;;;;;;5096275;28;20048;-78
2022/11/08 09:56:34;;;;;;;0.20;0.13;;;16.00;99.90;;;;;;5096176;28;20084;-77
2022/11/08 09:59:24;;;;;;;0.00;0.00;;;15.70;99.90;;;;;;5095831;28;20063;-79
2022/11/08 10:01:49;;;;;;;0.47;0.25;;;15.50;99.90;;;;;;5096010;28;20488;-78
2022/11/08 10:04:18;;;;;;;0.05;0.05;;;15.30;99.90;;;;;;5079142;28;20052;-78
2022/11/08 10:07:01;;;;;;;0.00;0.00;;;15.30;99.90;;;;;;5096071;28;20056;-77
2022/11/08 10:09:49;;;;;;;0.00;0.00;;;15.20;99.90;;;;;;5078552;28;20059;-78
2022/11/08 10:12:42;;;;;;;0.00;0.00;;;15.10;99.90;;;;;;5095938;28;20492;-78
2022/11/08 10:15:32;;;;;;;0.00;0.00;;;15.00;99.90;;;;;;5095811;28;20078;-78
2022/11/08 10:18:05;;;;;;;0.80;0.05;;;15.00;99.90;;;;;;5079445;28;20078;-78
2022/11/08 10:21:01;;;;;;;0.00;0.00;;;15.00;99.90;;;;;;5095483;28;20055;-80
2022/11/08 10:23:55;;;;;;;0.00;0.00;;;14.90;99.90;;;;;;5078859;28;20052;-79
2022/11/08 10:26:32;;;;;;;0.00;0.00;;;14.90;99.90;;;;;;5040130;28;20086;-77
2022/11/08 10:29:07;;;;;;;0.00;0.00;;;14.80;99.90;;;;;;5053830;28;20052;-79
2022/11/08 10:31:36;;;;;;;0.00;0.00;;;14.80;99.90;;;;;;5053453;28;20049;-78
2022/11/08 10:34:13;;;;;;;0.00;0.00;;;14.70;99.90;;;;;;5040466;28;20064;-79
2022/11/08 10:36:42;;;;;;;0.00;0.00;;;14.80;99.90;;;;;;5036726;28;20049;-78
2022/11/08 10:39:07;;;;;;;0.00;0.00;;;14.70;99.90;;;;;;5037127;28;20052;-78
2022/11/08 10:42:04;;;;;;;0.00;0.00;;;14.70;99.90;;;;;;5036167;28;20041;-79
2022/11/08 10:44:29;;;;;;;0.00;0.00;;;14.80;99.90;;;;;;5037261;28;20052;-78
2022/11/08 10:46:55;;;;;;;0.00;0.00;;;14.70;99.90;;;;;;5037023;28;20152;-78
2022/11/08 10:49:26;;;;;;;0.10;0.10;;;14.70;99.90;;;;;;5056361;28;20048;-79
2022/11/08 10:51:54;;;;;;;0.00;0.00;;;14.70;99.90;;;;;;5056504;28;20066;-79
2022/11/08 10:54:38;;;;;;;0.00;0.00;;;14.70;99.90;;;;;;5056687;28;20063;-78
2022/11/08 10:57:04;;;;;;;0.00;0.00;;;14.60;99.90;;;;;;5040138;28;20051;-78
2022/11/08 10:59:31;;;;;;;0.00;0.00;;;14.60;99.90;;;;;;5057627;28;20056;-78
2022/11/08 11:01:57;;;;;;;0.00;0.00;;;14.60;99.90;;;;;;5057032;28;20049;-78
2022/11/08 11:04:29;;;;;;;0.10;0.10;;;14.60;99.90;;;;;;5093789;28;20055;-78
2022/11/08 11:07:20;;;;;;;0.08;0.08;;;14.60;99.90;;;;;;5094838;28;20052;-78
2022/11/08 11:09:45;;;;;;;0.00;0.00;;;14.60;99.90;;;;;;5094098;28;20079;-78
2022/11/08 11:12:12;;;;;;;0.00;0.00;;;14.60;99.90;;;;;;5095318;28;20141;-78
2022/11/08 11:14:39;;;;;;;0.00;0.00;;;14.60;99.90;;;;;;5077751;28;20440;-78
2022/11/08 11:17:16;;;;;;;0.00;0.00;;;14.60;99.90;;;;;;5094237;28;20080;-78
2022/11/08 11:19:54;;;;;;;0.10;0.10;;;14.60;99.90;;;;;;5077902;28;20052;-78
2022/11/08 11:22:32;;;;;;;0.00;0.00;;;14.60;99.90;;;;;;5094347;28;20040;-78
2022/11/08 11:25:06;;;;;;;0.00;0.00;;;14.60;99.90;;;;;;5094214;28;20135;-78
2022/11/08 11:27:36;;;;;;;3.30;0.52;;;14.60;99.90;;;;;;5077570;28;20067;-79
2022/11/08 11:30:21;;;;;;;4.90;0.70;;;14.70;99.90;;;;;;5077381;28;20404;-78
2022/11/08 11:32:58;;;;;;;0.05;0.00;;;14.80;99.90;;;;;;5069019;28;20054;-82
2022/11/08 11:35:30;;;;;;;0.00;0.00;;;14.90;99.90;;;;;;5074161;28;20044;-81
2022/11/08 11:37:59;;;;;;;0.00;0.00;;;15.10;99.90;;;;;;5057488;28;20044;-78
2022/11/08 11:40:42;;;;;;;0.20;0.17;;;15.20;99.90;;;;;;5057147;28;20118;-78
2022/11/08 11:43:26;;;;;;;0.22;0.22;;;15.40;99.90;;;;;;5073571;28;20094;-78
2022/11/08 11:46:04;;;;;;;0.00;0.00;;;15.30;99.90;;;;;;5073938;28;20048;-78
2022/11/08 11:48:36;;;;;;;0.43;0.17;;;15.20;99.90;;;;;;5073803;28;20045;-78
2022/11/08 11:51:02;;;;;;;0.00;0.00;;;15.10;99.90;;;;;;5073443;28;20041;-78
2022/11/08 11:53:31;;;;;;;0.00;0.00;;;15.10;99.90;;;;;;5073203;28;20049;-79
2022/11/08 11:56:31;;;;;;;0.00;0.00;;;15.10;99.90;;;;;;5073277;28;20041;-78
2022/11/08 11:59:24;;;;;;;0.00;0.00;;;15.10;99.90;;;;;;5073143;28;20131;-78
2022/11/08 12:02:08;;;;;;;0.10;0.10;;;15.00;99.90;;;;;;5056776;28;20060;-78
2022/11/08 12:04:54;;;;;;;0.00;0.00;;;15.00;99.90;;;;;;5073235;28;20057;-78
2022/11/08 12:07:24;;;;;;;0.08;0.00;;;15.00;99.90;;;;;;5057049;28;20056;-78
2022/11/08 12:10:02;;;;;;;1.15;0.47;;;15.00;99.90;;;;;;5073322;28;20135;-78
2022/11/08 12:12:56;;;;;;;0.28;0.28;;;14.90;99.90;;;;;;5056543;28;20048;-77
2022/11/08 12:15:44;;;;;;;0.00;0.00;;;14.90;99.90;;;;;;5057147;28;20044;-78
2022/11/08 12:18:33;;;;;;;0.15;0.03;;;15.00;99.90;;;;;;5085805;28;20067;-78
2022/11/08 12:21:11;;;;;;;0.10;0.10;;;15.10;99.90;;;;;;5015212;28;20064;-78
2022/11/08 12:23:51;;;;;;;0.00;0.00;;;15.10;99.90;;;;;;5015670;28;20061;-78
2022/11/08 12:26:38;;;;;;;0.43;0.10;;;15.20;99.90;;;;;;5015696;28;20056;-78
2022/11/08 12:29:27;;;;;;;0.00;0.00;;;15.10;99.90;;;;;;5015567;28;20057;-78
2022/11/08 12:32:16;;;;;;;0.00;0.00;;;15.10;99.90;;;;;;5017616;28;20057;-78
2022/11/08 12:35:20;;;;;;;0.00;0.00;;;15.10;99.90;;;;;;5035047;28;20520;-78
2022/11/08 12:38:11;;;;;;;0.00;0.00;;;15.00;99.90;;;;;;4970651;28;20057;-78
2022/11/08 12:40:46;;;;;;;0.00;0.00;;;14.90;99.90;;;;;;4992076;28;20062;-78
2022/11/08 12:43:24;;;;;;;0.00;0.00;;;15.00;99.90;;;;;;4965697;28;20052;-79
2022/11/08 12:46:04;;;;;;;0.00;0.00;;;14.90;99.90;;;;;;4961370;28;20145;-79
2022/11/08 12:48:48;;;;;;;0.00;0.00;;;14.90;99.90;;;;;;4959770;28;20042;-79
2022/11/08 12:51:22;;;;;;;0.00;0.00;;;14.90;99.90;;;;;;4955041;28;20505;-79
2022/11/08 12:54:18;;;;;;;0.00;0.00;;;14.90;99.90;;;;;;4956601;28;20054;-78
2022/11/08 12:56:47;;;;;;;0.00;0.00;;;15.00;99.90;;;;;;4957196;28;20525;-77
2022/11/08 12:59:21;;;;;;;0.00;0.00;;;15.20;99.90;;;;;;5033249;28;20166;-77
2022/11/08 13:01:48;;;;;;;0.05;0.05;;;15.30;99.90;;;;;;5034556;28;20132;-77
2022/11/08 13:04:34;;;;;;;0.00;0.00;;;15.40;99.90;;;;;;5017176;28;20060;-77
2022/11/08 13:07:33;;;;;;;0.00;0.00;;;15.40;99.90;;;;;;5032048;28;20061;-77
2022/11/08 13:10:21;;;;;;;0.00;0.00;;;15.50;99.90;;;;;;4975759;28;20454;-77
2022/11/08 13:12:55;;;;;;;0.10;0.10;;;15.40;99.90;;;;;;4995581;28;20053;-77
2022/11/08 13:15:27;;;;;;;0.00;0.00;;;15.40;99.90;;;;;;4998106;28;20083;-78
2022/11/08 13:18:05;;;;;;;0.00;0.00;;;15.40;99.90;;;;;;5012728;28;20409;-76
2022/11/08 13:20:47;;;;;;;0.00;0.00;;;15.30;99.90;;;;;;5030835;28;20054;-77
2022/11/08 13:23:20;;;;;;;0.00;0.00;;;15.40;99.90;;;;;;4997763;28;20092;-77